Time;durP1;ratioP1;P1;durP2;ratioP2;P2;SDS_P1;SDS_P2;PMS_P1;PMS_P2;Temp;Humidity;BMP_temperature;BMP_pressure;BME280_temperature;BME280_humidity;BME280_pressure;Samples;Min_cycle;Max_cycle;Signal;HPM_P1;HPM_P2
2023/09/04 00:00:58;;;;;;;12.10;7.78;;;;;;;;;;5061163;28;20025;-84
2023/09/04 00:03:27;;;;;;;13.57;6.97;;;;;;;;;;5066798;28;20029;-83
2023/09/04 00:05:52;;;;;;;15.63;7.32;;;;;;;;;;5072461;28;20040;-84
2023/09/04 00:08:18;;;;;;;10.38;7.00;;;;;;;;;;5069162;28;20027;-83
2023/09/04 00:10:44;;;;;;;10.88;6.93;;;;;;;;;;5072992;28;20031;-83
2023/09/04 00:13:13;;;;;;;11.77;6.50;;;;;;;;;;5068841;28;20021;-84
2023/09/04 00:15:38;;;;;;;13.27;7.28;;;;;;;;;;5072992;28;20004;-83
2023/09/04 00:18:04;;;;;;;9.85;6.07;;;;;;;;;;5072819;28;20120;-84
2023/09/04 00:20:29;;;;;;;10.35;6.70;;;;;;;;;;5072424;28;20452;-84
2023/09/04 00:22:55;;;;;;;12.85;6.78;;;;;;;;;;5072159;28;20016;-83
2023/09/04 00:25:21;;;;;;;13.13;7.38;;;;;;;;;;5071899;28;20028;-84
2023/09/04 00:27:46;;;;;;;11.65;7.13;;;;;;;;;;5070978;28;20048;-83
2023/09/04 00:30:12;;;;;;;12.05;7.18;;;;;;;;;;5059400;28;20073;-83
2023/09/04 00:32:38;;;;;;;12.10;6.88;;;;;;;;;;5058090;28;20040;-84
2023/09/04 00:35:13;;;;;;;11.55;6.78;;;;;;;;;;5071774;28;20012;-82
2023/09/04 00:37:38;;;;;;;21.05;7.47;;;;;;;;;;5071839;28;20013;-83
2023/09/04 00:40:05;;;;;;;12.00;6.47;;;;;;;;;;5072446;28;20027;-83
2023/09/04 00:42:33;;;;;;;11.50;6.55;;;;;;;;;;5069804;28;20028;-84
2023/09/04 00:45:00;;;;;;;13.38;7.35;;;;;;;;;;5063625;28;20043;-84
2023/09/04 00:47:27;;;;;;;11.25;7.00;;;;;;;;;;5067435;28;20021;-84
2023/09/04 00:49:54;;;;;;;12.20;7.10;;;;;;;;;;5071674;28;20017;-83
2023/09/04 00:52:20;;;;;;;10.18;6.47;;;;;;;;;;5070733;28;20034;-84
2023/09/04 00:54:46;;;;;;;11.40;7.00;;;;;;;;;;5071372;28;20017;-84
2023/09/04 00:57:12;;;;;;;12.70;7.55;;;;;;;;;;5071669;28;20025;-83
2023/09/04 00:59:40;;;;;;;12.85;6.65;;;;;;;;;;5071614;28;20301;-83
2023/09/04 01:02:06;;;;;;;11.10;7.22;;;;;;;;;;5070932;28;20107;-84
2023/09/04 01:04:31;;;;;;;13.35;8.35;;;;;;;;;;5063992;28;20135;-84
2023/09/04 01:06:59;;;;;;;15.88;8.48;;;;;;;;;;5071441;28;20367;-84
2023/09/04 01:09:25;;;;;;;13.88;8.10;;;;;;;;;;5066251;28;20035;-84
2023/09/04 01:11:59;;;;;;;14.77;8.45;;;;;;;;;;5072864;28;20339;-83
2023/09/04 01:14:26;;;;;;;14.35;8.80;;;;;;;;;;5071783;28;20040;-84
2023/09/04 01:16:52;;;;;;;16.10;10.15;;;;;;;;;;5071985;28;20044;-84
2023/09/04 01:19:18;;;;;;;17.60;10.18;;;;;;;;;;5072099;28;20024;-85
2023/09/04 01:21:43;;;;;;;17.98;9.50;;;;;;;;;;5072867;28;20020;-84
2023/09/04 01:24:11;;;;;;;20.60;10.90;;;;;;;;;;5062818;28;20030;-84
2023/09/04 01:26:40;;;;;;;24.35;11.85;;;;;;;;;;5072489;28;20024;-83
2023/09/04 01:29:24;;;;;;;21.02;11.38;;;;;;;;;;5071653;28;20052;-84
2023/09/04 01:31:59;;;;;;;17.83;10.55;;;;;;;;;;5072273;28;20059;-84
2023/09/04 01:34:32;;;;;;;20.73;10.20;;;;;;;;;;5070756;28;20020;-84
2023/09/04 01:36:58;;;;;;;15.32;7.82;;;;;;;;;;5059536;28;20017;-83
2023/09/04 01:39:25;;;;;;;12.63;6.90;;;;;;;;;;5073635;28;20091;-84
2023/09/04 01:41:56;;;;;;;14.57;8.13;;;;;;;;;;5075001;28;20090;-83
2023/09/04 01:44:22;;;;;;;15.52;8.32;;;;;;;;;;5066919;28;20029;-84
2023/09/04 01:46:47;;;;;;;15.73;8.82;;;;;;;;;;5073640;28;20032;-83
2023/09/04 01:49:12;;;;;;;18.60;9.32;;;;;;;;;;5074662;28;20023;-83
2023/09/04 01:51:38;;;;;;;13.05;8.75;;;;;;;;;;5074330;28;20020;-83
2023/09/04 01:54:04;;;;;;;16.75;9.27;;;;;;;;;;5071694;28;20118;-83
2023/09/04 01:56:30;;;;;;;13.98;8.85;;;;;;;;;;5073498;28;20112;-84
2023/09/04 01:58:55;;;;;;;15.63;8.85;;;;;;;;;;5073671;28;20021;-83
2023/09/04 02:01:20;;;;;;;13.60;8.18;;;;;;;;;;5060488;28;20021;-84
2023/09/04 02:03:52;;;;;;;13.95;9.30;;;;;;;;;;5073579;28;20032;-84
2023/09/04 02:06:17;;;;;;;20.50;9.52;;;;;;;;;;5074801;28;20128;-84
2023/09/04 02:08:45;;;;;;;16.13;9.35;;;;;;;;;;5060328;28;20040;-84
2023/09/04 02:11:10;;;;;;;20.38;9.90;;;;;;;;;;5074363;28;20021;-84
2023/09/04 02:13:35;;;;;;;17.83;9.75;;;;;;;;;;5073478;28;20058;-84
2023/09/04 02:16:01;;;;;;;18.15;10.35;;;;;;;;;;5074586;28;20040;-83
2023/09/04 02:18:27;;;;;;;21.60;12.43;;;;;;;;;;5076158;28;20008;-84
2023/09/04 02:20:52;;;;;;;21.98;12.25;;;;;;;;;;5074431;28;20150;-83
2023/09/04 02:23:21;;;;;;;27.15;15.30;;;;;;;;;;5070612;28;20082;-84
2023/09/04 02:25:47;;;;;;;28.42;16.80;;;;;;;;;;5061159;28;20017;-83
2023/09/04 02:28:14;;;;;;;29.70;16.05;;;;;;;;;;5075701;28;20054;-82
2023/09/04 02:30:40;;;;;;;28.30;16.45;;;;;;;;;;5074448;28;20086;-83
2023/09/04 02:33:05;;;;;;;29.33;16.20;;;;;;;;;;5066825;28;20017;-83
2023/09/04 02:35:31;;;;;;;30.30;17.13;;;;;;;;;;5069418;28;20298;-83
2023/09/04 02:37:56;;;;;;;29.10;16.38;;;;;;;;;;5069963;28;20013;-84
2023/09/04 02:40:21;;;;;;;28.58;16.10;;;;;;;;;;5065200;28;20056;-84
2023/09/04 02:42:46;;;;;;;26.30;15.40;;;;;;;;;;5068568;28;20025;-84
2023/09/04 02:45:12;;;;;;;24.05;14.43;;;;;;;;;;5070141;28;20039;-83
2023/09/04 02:47:37;;;;;;;23.17;13.32;;;;;;;;;;5074068;28;20475;-83
2023/09/04 02:50:04;;;;;;;21.55;12.45;;;;;;;;;;5063659;28;20090;-83
2023/09/04 02:52:30;;;;;;;22.25;13.05;;;;;;;;;;5074978;28;20027;-83
2023/09/04 02:54:55;;;;;;;24.05;12.27;;;;;;;;;;5073115;28;20099;-84
2023/09/04 02:57:20;;;;;;;19.23;12.05;;;;;;;;;;5073823;28;20028;-82
2023/09/04 02:59:46;;;;;;;19.98;12.27;;;;;;;;;;5075284;28;20024;-83
2023/09/04 03:02:11;;;;;;;20.25;11.90;;;;;;;;;;5073325;28;20024;-84
2023/09/04 03:04:36;;;;;;;18.60;11.25;;;;;;;;;;5072732;28;20025;-84
2023/09/04 03:07:02;;;;;;;18.58;11.00;;;;;;;;;;5073114;28;20039;-83
2023/09/04 03:09:31;;;;;;;20.27;10.52;;;;;;;;;;5073144;28;20391;-83
2023/09/04 03:11:57;;;;;;;21.83;12.27;;;;;;;;;;5072644;28;20551;-83
2023/09/04 03:14:23;;;;;;;20.27;10.98;;;;;;;;;;5062314;28;20120;-83
2023/09/04 03:16:48;;;;;;;20.35;10.88;;;;;;;;;;5072667;28;20021;-84
2023/09/04 03:19:13;;;;;;;19.77;10.48;;;;;;;;;;5072902;28;20527;-84
2023/09/04 03:21:38;;;;;;;16.45;10.07;;;;;;;;;;5072549;28;20063;-83
2023/09/04 03:24:04;;;;;;;18.35;10.50;;;;;;;;;;5072988;28;20028;-84
2023/09/04 03:26:29;;;;;;;19.50;10.68;;;;;;;;;;5072046;28;20544;-83
2023/09/04 03:28:57;;;;;;;18.85;11.52;;;;;;;;;;5072781;28;20052;-83
2023/09/04 03:31:22;;;;;;;27.00;12.20;;;;;;;;;;5063901;28;20488;-83
2023/09/04 03:33:47;;;;;;;20.90;11.80;;;;;;;;;;5067782;28;20052;-83
2023/09/04 03:36:13;;;;;;;21.40;10.55;;;;;;;;;;5073399;28;20459;-83
2023/09/04 03:38:44;;;;;;;20.70;10.30;;;;;;;;;;5059925;28;20025;-83
2023/09/04 03:41:10;;;;;;;19.55;10.57;;;;;;;;;;5073265;28;20048;-83
2023/09/04 03:43:35;;;;;;;22.67;12.45;;;;;;;;;;5074293;28;20025;-83
2023/09/04 03:46:00;;;;;;;24.05;11.68;;;;;;;;;;5063889;28;20024;-83
2023/09/04 03:48:26;;;;;;;19.60;11.65;;;;;;;;;;5062836;28;20025;-83
2023/09/04 03:50:57;;;;;;;17.98;10.73;;;;;;;;;;5068254;28;20033;-84
2023/09/04 03:53:22;;;;;;;15.70;9.10;;;;;;;;;;5071795;28;20234;-83
2023/09/04 03:55:48;;;;;;;17.67;10.18;;;;;;;;;;5071874;28;20089;-83
2023/09/04 03:58:14;;;;;;;16.33;9.13;;;;;;;;;;5058632;28;20012;-83
2023/09/04 04:00:39;;;;;;;18.73;9.57;;;;;;;;;;5060003;28;20024;-83
2023/09/04 04:03:04;;;;;;;13.43;8.30;;;;;;;;;;5069278;28;20024;-83
2023/09/04 04:05:30;;;;;;;14.05;8.30;;;;;;;;;;5072121;28;20047;-83
2023/09/04 04:07:55;;;;;;;14.07;8.88;;;;;;;;;;5071945;28;20017;-83
2023/09/04 04:10:28;;;;;;;13.57;8.32;;;;;;;;;;5068652;28;20105;-83
2023/09/04 04:12:53;;;;;;;14.98;7.90;;;;;;;;;;5065597;28;20031;-84
2023/09/04 04:15:18;;;;;;;17.13;9.02;;;;;;;;;;5073117;28;20012;-84
2023/09/04 04:17:47;;;;;;;17.55;9.73;;;;;;;;;;5059068;28;20437;-84
2023/09/04 04:20:15;;;;;;;14.63;8.43;;;;;;;;;;5070580;28;20059;-83
2023/09/04 04:22:40;;;;;;;14.43;8.55;;;;;;;;;;5060659;28;20028;-83
2023/09/04 04:25:29;;;;;;;16.95;9.18;;;;;;;;;;5071381;28;20017;-83
2023/09/04 04:27:54;;;;;;;14.65;8.80;;;;;;;;;;5063617;28;20032;-83
2023/09/04 04:30:22;;;;;;;12.88;8.38;;;;;;;;;;5057355;28;20027;-84
2023/09/04 04:32:48;;;;;;;13.88;8.25;;;;;;;;;;5071199;28;20032;-82
2023/09/04 04:35:14;;;;;;;15.77;8.20;;;;;;;;;;5073174;28;20024;-83
2023/09/04 04:37:39;;;;;;;13.32;7.68;;;;;;;;;;5071736;28;20019;-83
2023/09/04 04:40:08;;;;;;;12.95;7.40;;;;;;;;;;5071972;28;20020;-83
2023/09/04 04:42:42;;;;;;;15.00;7.75;;;;;;;;;;5073426;28;20015;-84
2023/09/04 04:45:07;;;;;;;17.35;8.85;;;;;;;;;;5062835;28;20016;-84
2023/09/04 04:47:33;;;;;;;13.65;8.65;;;;;;;;;;5073566;28;20383;-83
2023/09/04 04:49:58;;;;;;;13.38;8.40;;;;;;;;;;5072587;28;20048;-83
2023/09/04 04:52:24;;;;;;;17.23;8.27;;;;;;;;;;5073415;28;20027;-84
2023/09/04 04:54:49;;;;;;;14.45;8.07;;;;;;;;;;5065385;28;20379;-83
2023/09/04 04:57:16;;;;;;;14.73;8.50;;;;;;;;;;5065246;28;20017;-83
2023/09/04 04:59:45;;;;;;;15.93;9.00;;;;;;;;;;5071567;28;20017;-83
2023/09/04 05:02:10;;;;;;;16.80;9.43;;;;;;;;;;5071638;28;20025;-83
2023/09/04 05:04:36;;;;;;;14.80;8.52;;;;;;;;;;5070069;28;20029;-83
2023/09/04 05:07:02;;;;;;;14.65;8.55;;;;;;;;;;5072305;28;20024;-84
2023/09/04 05:09:27;;;;;;;14.20;8.95;;;;;;;;;;5070452;28;20020;-84
2023/09/04 05:11:52;;;;;;;13.70;8.20;;;;;;;;;;5062621;28;20029;-83
2023/09/04 05:14:18;;;;;;;14.65;8.27;;;;;;;;;;5065913;28;20036;-82
2023/09/04 05:16:43;;;;;;;14.55;8.52;;;;;;;;;;5075022;28;20009;-83
2023/09/04 05:19:12;;;;;;;13.73;8.50;;;;;;;;;;5075362;28;20021;-83
2023/09/04 05:21:37;;;;;;;14.50;9.18;;;;;;;;;;5075250;28;20017;-84
2023/09/04 05:24:03;;;;;;;16.95;8.43;;;;;;;;;;5074210;28;20557;-84
2023/09/04 05:26:28;;;;;;;15.82;9.23;;;;;;;;;;5074664;28;20119;-83
2023/09/04 05:28:53;;;;;;;18.52;8.55;;;;;;;;;;5075080;28;20028;-84
2023/09/04 05:31:21;;;;;;;14.82;9.05;;;;;;;;;;5067564;28;20029;-83
2023/09/04 05:33:47;;;;;;;15.73;9.05;;;;;;;;;;5068868;28;20029;-84
2023/09/04 05:36:15;;;;;;;17.20;9.38;;;;;;;;;;5075113;28;20335;-84
2023/09/04 05:38:43;;;;;;;17.17;9.55;;;;;;;;;;5061411;28;20029;-83
2023/09/04 05:41:12;;;;;;;14.60;9.00;;;;;;;;;;5061016;28;20052;-84
2023/09/04 05:43:37;;;;;;;15.48;8.48;;;;;;;;;;5074831;28;20107;-84
2023/09/04 05:46:03;;;;;;;15.45;7.90;;;;;;;;;;5075464;28;20066;-82
2023/09/04 05:48:33;;;;;;;12.95;7.72;;;;;;;;;;5065437;28;20499;-82
2023/09/04 05:50:58;;;;;;;12.48;7.55;;;;;;;;;;5071790;28;20028;-83
2023/09/04 05:53:24;;;;;;;13.23;7.90;;;;;;;;;;5075064;28;20032;-83
2023/09/04 05:56:22;;;;;;;15.23;8.00;;;;;;;;;;5075074;28;20025;-84
2023/09/04 05:58:48;;;;;;;16.95;8.32;;;;;;;;;;5049920;28;20075;-84
2023/09/04 06:01:14;;;;;;;15.90;8.45;;;;;;;;;;5075095;28;20032;-85
2023/09/04 06:03:40;;;;;;;19.42;8.85;;;;;;;;;;5074710;28;20032;-84
2023/09/04 06:06:05;;;;;;;15.32;9.25;;;;;;;;;;5075460;28;20107;-84
2023/09/04 06:08:32;;;;;;;16.98;9.70;;;;;;;;;;5062100;28;20199;-84
2023/09/04 06:10:57;;;;;;;18.40;10.05;;;;;;;;;;5074915;28;20024;-83
2023/09/04 06:13:22;;;;;;;20.95;10.25;;;;;;;;;;5074731;28;20434;-84
2023/09/04 06:15:51;;;;;;;19.15;10.13;;;;;;;;;;5075104;28;21420;-84
2023/09/04 06:18:16;;;;;;;17.92;10.27;;;;;;;;;;5060549;28;20115;-84
2023/09/04 06:20:42;;;;;;;17.60;10.02;;;;;;;;;;5074730;28;20067;-84
2023/09/04 06:23:09;;;;;;;18.35;9.70;;;;;;;;;;5074969;28;20040;-84
2023/09/04 06:25:39;;;;;;;21.33;11.40;;;;;;;;;;5073335;28;20115;-84
2023/09/04 06:28:07;;;;;;;23.90;11.52;;;;;;;;;;5068790;28;20032;-85
2023/09/04 06:30:33;;;;;;;24.20;12.38;;;;;;;;;;5059249;28;20036;-85
2023/09/04 06:32:59;;;;;;;22.50;13.18;;;;;;;;;;5074743;28;20020;-84
2023/09/04 06:35:24;;;;;;;24.30;12.85;;;;;;;;;;5073991;28;20108;-85
2023/09/04 06:37:52;;;;;;;26.55;13.15;;;;;;;;;;5072238;28;20081;-84
2023/09/04 06:40:17;;;;;;;26.25;13.60;;;;;;;;;;5067234;28;20052;-85
2023/09/04 06:42:43;;;;;;;29.10;14.10;;;;;;;;;;5074691;28;20016;-85
2023/09/04 06:45:08;;;;;;;24.95;14.13;;;;;;;;;;5074459;28;20060;-84
2023/09/04 06:47:34;;;;;;;29.27;15.15;;;;;;;;;;5072628;28;20119;-85
2023/09/04 06:50:01;;;;;;;27.05;14.07;;;;;;;;;;5068171;28;20043;-85
2023/09/04 06:52:26;;;;;;;26.67;13.95;;;;;;;;;;5055133;28;20082;-85
2023/09/04 06:54:51;;;;;;;24.17;14.38;;;;;;;;;;5074608;28;20020;-85
2023/09/04 06:57:17;;;;;;;26.17;14.63;;;;;;;;;;5065243;28;20074;-85
2023/09/04 06:59:42;;;;;;;32.83;15.93;;;;;;;;;;5071910;28;20017;-85
2023/09/04 07:02:07;;;;;;;24.45;15.23;;;;;;;;;;5071172;28;20055;-85
2023/09/04 07:04:33;;;;;;;24.60;14.40;;;;;;;;;;5071462;28;20021;-85
2023/09/04 07:06:58;;;;;;;29.13;16.30;;;;;;;;;;5070671;28;20021;-85
2023/09/04 07:09:23;;;;;;;31.42;15.70;;;;;;;;;;5067111;28;20029;-85
2023/09/04 07:11:49;;;;;;;30.17;16.73;;;;;;;;;;5073959;28;20024;-85
2023/09/04 07:14:14;;;;;;;33.08;16.95;;;;;;;;;;5074335;28;20079;-85
2023/09/04 07:16:39;;;;;;;31.95;17.75;;;;;;;;;;5071232;28;20017;-86
2023/09/04 07:19:07;;;;;;;32.88;16.83;;;;;;;;;;5073120;28;20509;-84
2023/09/04 07:21:36;;;;;;;28.73;16.33;;;;;;;;;;5073364;28;20425;-83
2023/09/04 07:24:03;;;;;;;34.20;16.60;;;;;;;;;;5073029;28;20031;-84
2023/09/04 07:26:29;;;;;;;32.13;16.90;;;;;;;;;;5073581;28;20464;-83
2023/09/04 07:28:54;;;;;;;33.22;17.63;;;;;;;;;;5074088;28;20066;-84
2023/09/04 07:31:20;;;;;;;35.90;17.67;;;;;;;;;;5064594;28;20476;-84
2023/09/04 07:33:46;;;;;;;30.85;17.27;;;;;;;;;;5067959;28;20093;-84
2023/09/04 07:36:12;;;;;;;38.17;18.40;;;;;;;;;;5073234;28;20395;-84
2023/09/04 07:38:37;;;;;;;31.65;17.98;;;;;;;;;;5073206;28;20482;-84
2023/09/04 07:41:03;;;;;;;35.50;18.05;;;;;;;;;;5072979;28;20044;-84
2023/09/04 07:43:35;;;;;;;43.17;17.60;;;;;;;;;;5069504;28;20032;-85
2023/09/04 07:46:01;;;;;;;37.05;17.80;;;;;;;;;;5057563;28;20103;-84
2023/09/04 07:48:27;;;;;;;34.33;17.23;;;;;;;;;;5072735;28;20404;-85
2023/09/04 07:50:52;;;;;;;36.03;18.63;;;;;;;;;;5064342;28;20021;-84
2023/09/04 07:53:18;;;;;;;35.17;17.30;;;;;;;;;;5069583;28;20024;-86
2023/09/04 07:55:43;;;;;;;32.13;16.63;;;;;;;;;;5072066;28;20054;-86
2023/09/04 07:58:09;;;;;;;30.10;16.02;;;;;;;;;;5069898;28;20059;-86
2023/09/04 08:00:41;;;;;;;31.58;16.05;;;;;;;;;;5069900;28;20058;-85
2023/09/04 08:03:07;;;;;;;29.95;16.08;;;;;;;;;;5067364;28;20093;-86
2023/09/04 08:05:32;;;;;;;26.58;14.02;;;;;;;;;;5072229;28;20387;-86
2023/09/04 08:07:58;;;;;;;34.08;15.23;;;;;;;;;;5072172;28;20027;-86
2023/09/04 08:10:24;;;;;;;32.55;15.75;;;;;;;;;;5070611;28;20036;-85
2023/09/04 08:12:49;;;;;;;34.45;16.27;;;;;;;;;;5074247;28;20029;-86
2023/09/04 08:15:15;;;;;;;28.42;14.48;;;;;;;;;;5072735;28;20072;-86
2023/09/04 08:17:43;;;;;;;29.40;14.93;;;;;;;;;;5067140;28;20025;-85
2023/09/04 08:20:14;;;;;;;30.92;14.15;;;;;;;;;;5064600;28;20023;-86
2023/09/04 08:22:39;;;;;;;28.55;13.10;;;;;;;;;;5073183;28;20039;-86
2023/09/04 08:25:05;;;;;;;27.77;13.30;;;;;;;;;;5072915;28;20379;-85
2023/09/04 08:27:30;;;;;;;26.75;12.68;;;;;;;;;;5059902;28;20108;-85
2023/09/04 08:29:55;;;;;;;36.50;14.55;;;;;;;;;;5072491;28;20012;-86
2023/09/04 08:32:20;;;;;;;27.55;13.93;;;;;;;;;;5058401;28;20012;-86
2023/09/04 08:34:46;;;;;;;31.00;13.35;;;;;;;;;;5072786;28;20162;-86
2023/09/04 08:37:11;;;;;;;26.33;14.23;;;;;;;;;;5061144;28;20060;-86
2023/09/04 08:39:36;;;;;;;29.17;11.77;;;;;;;;;;5056539;28;20020;-85
2023/09/04 08:42:07;;;;;;;23.13;13.27;;;;;;;;;;5072283;28;20020;-86
2023/09/04 08:44:34;;;;;;;26.80;13.27;;;;;;;;;;5058608;28;20031;-86
2023/09/04 08:46:59;;;;;;;22.90;12.93;;;;;;;;;;5071371;28;20112;-86
2023/09/04 08:49:26;;;;;;;23.35;12.07;;;;;;;;;;5069237;28;20516;-86
2023/09/04 08:51:52;;;;;;;24.55;11.38;;;;;;;;;;5062025;28;20025;-85
2023/09/04 08:54:17;;;;;;;21.00;12.00;;;;;;;;;;5070106;28;20035;-85
2023/09/04 08:56:45;;;;;;;19.30;11.80;;;;;;;;;;5059537;28;20012;-87
2023/09/04 08:59:11;;;;;;;23.35;11.93;;;;;;;;;;5061013;28;20017;-87
2023/09/04 09:01:37;;;;;;;20.70;10.85;;;;;;;;;;5072605;28;20008;-87
2023/09/04 09:04:04;;;;;;;20.85;10.55;;;;;;;;;;5072240;28;20447;-87
2023/09/04 09:06:33;;;;;;;21.92;11.25;;;;;;;;;;5071985;28;20408;-87
2023/09/04 09:08:58;;;;;;;22.38;11.15;;;;;;;;;;5062930;28;20025;-87
2023/09/04 09:11:24;;;;;;;27.20;11.07;;;;;;;;;;5073909;28;20486;-87
2023/09/04 09:13:49;;;;;;;18.75;10.30;;;;;;;;;;5059073;28;20383;-87
2023/09/04 09:16:19;;;;;;;23.83;11.10;;;;;;;;;;5065763;28;20032;-87
2023/09/04 09:18:44;;;;;;;17.45;9.57;;;;;;;;;;5062698;28;20017;-87
2023/09/04 09:21:29;;;;;;;22.20;11.50;;;;;;;;;;5059557;28;20490;-87
2023/09/04 09:24:06;;;;;;;23.30;10.43;;;;;;;;;;5060863;28;20032;-88
2023/09/04 09:26:31;;;;;;;20.77;11.48;;;;;;;;;;5059788;28;20021;-87
2023/09/04 09:28:57;;;;;;;25.42;13.65;;;;;;;;;;5068696;28;20491;-88
2023/09/04 09:31:22;;;;;;;30.23;12.32;;;;;;;;;;5055512;28;20037;-87
2023/09/04 09:33:48;;;;;;;23.30;12.10;;;;;;;;;;5067732;28;20023;-87
2023/09/04 09:36:13;;;;;;;21.35;11.05;;;;;;;;;;5060338;28;20024;-87
2023/09/04 09:38:43;;;;;;;21.92;10.68;;;;;;;;;;5072126;28;20036;-88
2023/09/04 09:41:10;;;;;;;25.75;11.32;;;;;;;;;;5063876;28;20048;-87
2023/09/04 09:43:41;;;;;;;16.40;8.95;;;;;;;;;;5069763;28;20391;-88
2023/09/04 09:46:08;;;;;;;16.70;9.13;;;;;;;;;;5067936;28;20020;-87
2023/09/04 09:48:34;;;;;;;15.40;8.85;;;;;;;;;;5064090;28;20371;-87
2023/09/04 09:51:00;;;;;;;20.15;9.43;;;;;;;;;;5073122;28;20047;-87
2023/09/04 09:53:25;;;;;;;18.30;9.55;;;;;;;;;;5071820;28;20020;-88
2023/09/04 09:55:51;;;;;;;19.70;9.20;;;;;;;;;;5061157;28;20048;-87
2023/09/04 09:58:17;;;;;;;20.27;8.93;;;;;;;;;;5064841;28;20024;-88
2023/09/04 10:00:43;;;;;;;21.05;9.18;;;;;;;;;;5069871;28;20448;-87
2023/09/04 10:03:08;;;;;;;21.92;10.20;;;;;;;;;;5074766;28;20017;-88
2023/09/04 10:05:34;;;;;;;17.33;8.40;;;;;;;;;;5079653;28;20111;-86
2023/09/04 10:08:06;;;;;;;16.40;7.93;;;;;;;;;;5068683;28;20315;-88
2023/09/04 10:10:36;;;;;;;22.17;7.50;;;;;;;;;;5065489;28;20031;-87
2023/09/04 10:13:04;;;;;;;17.75;8.20;;;;;;;;;;5059515;28;20093;-87
2023/09/04 10:15:32;;;;;;;13.82;7.57;;;;;;;;;;5079787;28;20066;-87
2023/09/04 10:18:00;;;;;;;14.05;7.45;;;;;;;;;;5067921;28;20023;-88
2023/09/04 10:20:26;;;;;;;19.40;7.25;;;;;;;;;;5064958;28;20013;-88
2023/09/04 10:22:59;;;;;;;12.35;6.72;;;;;;;;;;5064301;28;20103;-87
2023/09/04 10:25:26;;;;;;;10.55;6.55;;;;;;;;;;5072383;28;20340;-87
2023/09/04 10:27:55;;;;;;;12.52;7.88;;;;;;;;;;5073257;28;20470;-88
2023/09/04 10:30:23;;;;;;;8.80;5.43;;;;;;;;;;5061502;28;20033;-87
2023/09/04 10:32:48;;;;;;;13.88;6.00;;;;;;;;;;5065062;28;20024;-87
2023/09/04 10:35:14;;;;;;;13.55;5.72;;;;;;;;;;5074993;28;20527;-87
2023/09/04 10:37:40;;;;;;;10.63;5.57;;;;;;;;;;5075257;28;20016;-87
2023/09/04 10:40:06;;;;;;;16.27;6.90;;;;;;;;;;5075283;28;20035;-87
2023/09/04 10:42:33;;;;;;;9.60;6.35;;;;;;;;;;5067093;28;20021;-88
2023/09/04 10:45:10;;;;;;;11.30;6.78;;;;;;;;;;5055855;28;20029;-87
2023/09/04 10:47:53;;;;;;;11.45;5.72;;;;;;;;;;5072377;28;20012;-88
2023/09/04 10:50:25;;;;;;;11.23;6.15;;;;;;;;;;5075735;28;20020;-88
2023/09/04 10:52:53;;;;;;;;;;;;;;;;;;5074083;28;20017;-87
2023/09/04 10:55:19;;;;;;;10.77;6.15;;;;;;;;;;5076270;28;19908;-88
2023/09/04 10:57:58;;;;;;;10.60;5.47;;;;;;;;;;5061229;28;20088;-88
2023/09/04 11:00:33;;;;;;;10.73;5.15;;;;;;;;;;5075177;28;20031;-88
2023/09/04 11:03:13;;;;;;;13.00;4.70;;;;;;;;;;5073380;28;20012;-88
2023/09/04 11:06:00;;;;;;;7.13;4.47;;;;;;;;;;5065212;28;20032;-87
2023/09/04 11:08:26;;;;;;;9.18;4.60;;;;;;;;;;5064887;28;20028;-88
2023/09/04 11:10:58;;;;;;;9.30;5.00;;;;;;;;;;5074154;28;20027;-87
2023/09/04 11:13:25;;;;;;;7.88;4.47;;;;;;;;;;5105599;28;20386;-87
2023/09/04 11:16:11;;;;;;;6.90;4.15;;;;;;;;;;5059692;28;20039;-87
2023/09/04 11:18:37;;;;;;;8.77;4.30;;;;;;;;;;5056534;28;20542;-87
2023/09/04 11:21:10;;;;;;;8.77;5.10;;;;;;;;;;5072908;28;20353;-88
2023/09/04 11:23:35;;;;;;;7.50;4.72;;;;;;;;;;5073259;28;20478;-88
2023/09/04 11:26:02;;;;;;;7.57;4.93;;;;;;;;;;5060077;28;20044;-88
2023/09/04 11:28:30;;;;;;;8.35;4.93;;;;;;;;;;5071868;28;20035;-88
2023/09/04 11:30:59;;;;;;;7.82;4.72;;;;;;;;;;5061527;28;20046;-85
2023/09/04 11:33:31;;;;;;;7.45;4.78;;;;;;;;;;5057993;28;20076;-85
2023/09/04 11:35:56;;;;;;;;;;;;;;;;;;5070225;28;20025;-85
2023/09/04 11:38:25;;;;;;;8.73;4.68;;;;;;;;;;5073260;28;19999;-86
2023/09/04 11:40:51;;;;;;;6.40;4.13;;;;;;;;;;5072517;28;20261;-85
2023/09/04 11:43:16;;;;;;;6.97;4.10;;;;;;;;;;5073151;28;20028;-86
2023/09/04 11:45:42;;;;;;;9.73;4.18;;;;;;;;;;5067532;28;20025;-84
2023/09/04 11:48:07;;;;;;;6.93;3.78;;;;;;;;;;5073736;28;20472;-86
2023/09/04 11:50:33;;;;;;;6.40;4.22;;;;;;;;;;5060069;28;20041;-84
2023/09/04 11:52:58;;;;;;;7.20;4.15;;;;;;;;;;5070111;28;20040;-85
2023/09/04 11:55:27;;;;;;;6.15;3.78;;;;;;;;;;5073831;28;20032;-85
2023/09/04 11:57:53;;;;;;;6.88;3.60;;;;;;;;;;5072110;28;20035;-85
2023/09/04 12:00:18;;;;;;;7.25;4.55;;;;;;;;;;5073153;28;20016;-86
2023/09/04 12:02:43;;;;;;;10.98;4.20;;;;;;;;;;5067841;28;20020;-86
2023/09/04 12:05:10;;;;;;;6.35;3.63;;;;;;;;;;5065446;28;20017;-85
2023/09/04 12:07:36;;;;;;;6.05;3.83;;;;;;;;;;5072031;28;20025;-83
2023/09/04 12:10:04;;;;;;;6.80;3.70;;;;;;;;;;5064521;28;20020;-83
2023/09/04 12:12:30;;;;;;;5.35;3.40;;;;;;;;;;5069835;28;20021;-85
2023/09/04 12:14:55;;;;;;;7.25;4.03;;;;;;;;;;5070539;28;20027;-85
2023/09/04 12:17:21;;;;;;;8.90;3.25;;;;;;;;;;5054502;28;20143;-85
2023/09/04 12:19:46;;;;;;;6.35;3.28;;;;;;;;;;5070994;28;20020;-86
2023/09/04 12:22:11;;;;;;;6.72;3.42;;;;;;;;;;5068322;28;20035;-86
2023/09/04 12:24:36;;;;;;;4.68;3.08;;;;;;;;;;5072673;28;20412;-86
2023/09/04 12:27:02;;;;;;;7.43;3.15;;;;;;;;;;5072420;28;20024;-86
2023/09/04 12:29:28;;;;;;;7.38;4.30;;;;;;;;;;5064133;28;20107;-85
2023/09/04 12:31:54;;;;;;;6.13;3.10;;;;;;;;;;5073527;28;20028;-85
2023/09/04 12:34:23;;;;;;;5.10;3.38;;;;;;;;;;5058191;28;20337;-85
2023/09/04 12:36:53;;;;;;;4.68;3.13;;;;;;;;;;5062205;28;20070;-85
2023/09/04 12:39:18;;;;;;;6.20;3.33;;;;;;;;;;5071803;28;20106;-85
2023/09/04 12:41:44;;;;;;;3.58;2.80;;;;;;;;;;5062826;28;20025;-86
2023/09/04 12:44:10;;;;;;;6.60;2.80;;;;;;;;;;5055633;28;20071;-85
2023/09/04 12:46:36;;;;;;;4.53;2.50;;;;;;;;;;5055961;28;20021;-85
2023/09/04 12:49:02;;;;;;;4.90;2.47;;;;;;;;;;5071852;28;20112;-86
2023/09/04 12:51:27;;;;;;;4.50;2.60;;;;;;;;;;5072809;28;20467;-86
2023/09/04 12:53:52;;;;;;;3.03;2.00;;;;;;;;;;5073758;28;20025;-86
2023/09/04 12:56:18;;;;;;;4.18;2.40;;;;;;;;;;5066745;28;20021;-86
2023/09/04 12:58:43;;;;;;;5.95;2.47;;;;;;;;;;5072475;28;20020;-86
2023/09/04 13:01:09;;;;;;;3.47;2.50;;;;;;;;;;5072698;28;20025;-85
2023/09/04 13:03:34;;;;;;;9.63;2.80;;;;;;;;;;5072476;28;20162;-85
2023/09/04 13:05:59;;;;;;;3.88;2.50;;;;;;;;;;5066041;28;20024;-85
2023/09/04 13:08:25;;;;;;;4.25;2.38;;;;;;;;;;5072888;28;20111;-85
2023/09/04 13:10:50;;;;;;;5.05;2.17;;;;;;;;;;5073022;28;20444;-86
2023/09/04 13:13:15;;;;;;;2.50;2.00;;;;;;;;;;5072325;28;20051;-85
2023/09/04 13:15:41;;;;;;;2.95;1.90;;;;;;;;;;5072646;28;20021;-86
2023/09/04 13:18:06;;;;;;;4.05;1.60;;;;;;;;;;5058515;28;20017;-85
2023/09/04 13:20:31;;;;;;;5.40;1.77;;;;;;;;;;5071905;28;20027;-86
2023/09/04 13:22:57;;;;;;;3.08;1.75;;;;;;;;;;5058081;28;20021;-86
2023/09/04 13:25:22;;;;;;;3.53;1.88;;;;;;;;;;5072757;28;20383;-86
2023/09/04 13:27:48;;;;;;;9.57;2.25;;;;;;;;;;5072466;28;20021;-86
2023/09/04 13:30:13;;;;;;;4.60;2.10;;;;;;;;;;5072614;28;20020;-86
2023/09/04 13:32:38;;;;;;;2.35;1.80;;;;;;;;;;5059637;28;20017;-86
2023/09/04 13:35:04;;;;;;;2.55;1.58;;;;;;;;;;5065536;28;20470;-85
2023/09/04 13:37:30;;;;;;;3.55;1.98;;;;;;;;;;5067327;28;20032;-85
2023/09/04 13:39:56;;;;;;;4.00;2.10;;;;;;;;;;5072612;28;20024;-86
2023/09/04 13:42:21;;;;;;;4.63;2.08;;;;;;;;;;5064170;28;20020;-86
2023/09/04 13:44:46;;;;;;;3.45;1.85;;;;;;;;;;5075411;28;20017;-86
2023/09/04 13:47:12;;;;;;;6.50;2.20;;;;;;;;;;5075229;28;20039;-85
2023/09/04 13:49:38;;;;;;;4.13;2.00;;;;;;;;;;5060289;28;20021;-86
2023/09/04 13:52:04;;;;;;;4.97;1.90;;;;;;;;;;5064961;28;20436;-86
2023/09/04 13:54:31;;;;;;;2.40;1.85;;;;;;;;;;5060728;28;20036;-86
2023/09/04 13:56:56;;;;;;;3.28;2.10;;;;;;;;;;5075064;28;20024;-85
2023/09/04 13:59:22;;;;;;;3.50;2.30;;;;;;;;;;5057973;28;20468;-86
2023/09/04 14:01:49;;;;;;;3.42;2.13;;;;;;;;;;5069472;28;20013;-86
2023/09/04 14:04:17;;;;;;;7.45;2.22;;;;;;;;;;5076260;28;20367;-86
2023/09/04 14:06:42;;;;;;;3.38;2.28;;;;;;;;;;5074926;28;20020;-86
2023/09/04 14:09:07;;;;;;;2.53;1.80;;;;;;;;;;5074696;28;20016;-85
2023/09/04 14:11:34;;;;;;;3.13;2.08;;;;;;;;;;5074018;28;20067;-84
2023/09/04 14:13:59;;;;;;;4.30;2.00;;;;;;;;;;5074798;28;20438;-86
2023/09/04 14:16:25;;;;;;;4.13;2.33;;;;;;;;;;5073626;28;20086;-86
2023/09/04 14:18:53;;;;;;;6.00;2.05;;;;;;;;;;5075829;28;20021;-86
2023/09/04 14:21:18;;;;;;;9.63;2.30;;;;;;;;;;5065509;28;20025;-86
2023/09/04 14:23:45;;;;;;;3.58;1.98;;;;;;;;;;5074780;28;20094;-86
2023/09/04 14:26:11;;;;;;;2.45;1.90;;;;;;;;;;5060213;28;20024;-86